Southampton, Massachusetts
Current Conditions -  °F | °C
As of 2:53 AM on Friday 24 Oct 2014 (Local Time) from KBAF Reporting Station
Light Rain Light Rain  
Wind Chill: 50°   Ceiling: 3800
Heat Index: 50°   Visibility: 10mi
Dew Point: 45°   Wind: 12mph
Humidity: 83%   Direction: 330°NNW
Pressure: 29.73"   Gusts: NA
Location:  42.23°N, 72.73°W
Report Text: KBAF 240653Z 33010KT 10SM -RA SCT024 OVC038 10/07 A2973 RMK AO2 RAB13 SLP068 P0000 T01000072
Loading
Personal Weather Stations






























Interactive Weather Map
Tropical Storm Tracking
New forecast layout! Learn more

10-Day Weather Forecast

Advertisements
Track Severe Weather on mobile